Time;durP1;ratioP1;P1;durP2;ratioP2;P2;SDS_P1;SDS_P2;PMS_P1;PMS_P2;Temp;Humidity;BMP_temperature;BMP_pressure;BME280_temperature;BME280_humidity;BME280_pressure;Samples;Min_cycle;Max_cycle;Signal;HPM_P1;HPM_P2
2021/07/31 00:02:19;;;;;;;7.75;5.40;;;18.90;99.90;;;;;;5071542;28;20197;-64
2021/07/31 00:04:47;;;;;;;9.57;6.30;;;18.90;99.90;;;;;;5071417;28;20208;-63
2021/07/31 00:07:14;;;;;;;6.65;5.85;;;19.10;99.90;;;;;;5070861;28;20291;-63
2021/07/31 00:09:44;;;;;;;6.35;5.47;;;19.00;99.90;;;;;;5071573;28;20227;-64
2021/07/31 00:12:11;;;;;;;7.38;5.25;;;19.20;99.90;;;;;;5074182;28;20228;-63
2021/07/31 00:14:39;;;;;;;10.50;5.28;;;19.20;99.90;;;;;;5075269;28;20641;-64
2021/07/31 00:17:08;;;;;;;8.35;5.50;;;19.10;99.90;;;;;;5075122;28;20205;-64
2021/07/31 00:19:36;;;;;;;7.40;5.47;;;19.20;99.90;;;;;;5075311;28;20299;-63
2021/07/31 00:22:04;;;;;;;7.05;5.20;;;19.30;99.90;;;;;;5074991;28;20731;-64
2021/07/31 00:24:32;;;;;;;8.68;5.90;;;19.40;99.90;;;;;;5075202;28;20199;-63
2021/07/31 00:27:01;;;;;;;7.60;5.38;;;19.40;99.90;;;;;;5074916;28;20300;-63
2021/07/31 00:29:29;;;;;;;7.07;5.22;;;19.50;99.90;;;;;;5074712;28;20798;-63
2021/07/31 00:31:57;;;;;;;9.07;5.32;;;19.40;99.90;;;;;;5074550;28;20650;-64
2021/07/31 00:34:24;;;;;;;5.93;5.18;;;19.40;99.90;;;;;;5074786;28;20660;-62
2021/07/31 00:36:52;;;;;;;7.35;5.13;;;19.50;99.90;;;;;;5074859;28;20198;-64
2021/07/31 00:39:21;;;;;;;7.10;4.85;;;19.40;99.90;;;;;;5074945;28;20201;-63
2021/07/31 00:41:49;;;;;;;8.35;5.60;;;19.40;99.90;;;;;;5074859;28;20200;-65
2021/07/31 00:44:18;;;;;;;9.57;5.50;;;19.40;99.90;;;;;;5074226;28;20248;-63
2021/07/31 00:46:46;;;;;;;7.03;5.05;;;19.40;99.90;;;;;;5074868;28;20231;-63
2021/07/31 00:49:14;;;;;;;5.80;5.20;;;19.30;99.90;;;;;;5074664;28;20307;-64
2021/07/31 00:51:42;;;;;;;7.15;5.05;;;19.30;99.90;;;;;;5074688;28;20283;-63
2021/07/31 00:54:10;;;;;;;6.95;5.07;;;19.30;99.90;;;;;;5074350;28;20652;-64
2021/07/31 00:56:38;;;;;;;8.73;5.20;;;19.30;99.90;;;;;;5074275;28;20205;-64
2021/07/31 00:59:06;;;;;;;6.65;5.47;;;19.40;99.90;;;;;;5074381;28;20203;-63
2021/07/31 01:01:35;;;;;;;7.57;4.97;;;19.40;99.90;;;;;;5074385;28;20223;-64
2021/07/31 01:04:04;;;;;;;6.20;5.03;;;19.50;99.90;;;;;;5074648;28;20270;-64
2021/07/31 01:06:32;;;;;;;5.82;5.22;;;19.50;99.90;;;;;;5074237;28;20310;-62
2021/07/31 01:09:01;;;;;;;7.43;5.38;;;19.50;99.90;;;;;;5074486;28;20221;-63
2021/07/31 01:11:30;;;;;;;7.07;5.05;;;19.30;99.90;;;;;;5074103;28;20718;-64
2021/07/31 01:13:59;;;;;;;9.18;5.38;;;19.30;99.90;;;;;;5073964;28;20824;-64
2021/07/31 01:16:26;;;;;;;6.63;5.10;;;19.20;99.90;;;;;;5075254;28;20239;-63
2021/07/31 01:18:56;;;;;;;6.22;5.63;;;19.30;99.90;;;;;;5074702;28;20201;-65
2021/07/31 01:21:43;;;;;;;6.47;4.90;;;19.30;99.90;;;;;;5074274;28;20201;-63
2021/07/31 01:24:13;;;;;;;6.63;5.25;;;19.50;99.90;;;;;;5073250;28;20571;-64
2021/07/31 01:26:43;;;;;;;5.50;5.00;;;19.50;99.90;;;;;;5075015;28;20283;-64
2021/07/31 01:29:12;;;;;;;5.63;4.78;;;19.40;99.90;;;;;;5074236;28;20223;-63
2021/07/31 01:31:41;;;;;;;5.47;4.68;;;19.50;99.90;;;;;;5073869;28;20666;-63
2021/07/31 01:34:09;;;;;;;5.65;5.13;;;19.50;99.90;;;;;;5074000;28;20544;-63
2021/07/31 01:36:37;;;;;;;6.35;5.30;;;19.50;99.90;;;;;;5073909;28;20287;-63
2021/07/31 01:39:06;;;;;;;5.30;4.57;;;19.50;99.90;;;;;;5073470;28;20299;-63
2021/07/31 01:41:34;;;;;;;6.53;5.00;;;19.40;99.90;;;;;;5073729;28;20300;-63
2021/07/31 01:44:02;;;;;;;7.07;4.80;;;19.50;99.90;;;;;;5072765;28;20239;-64
2021/07/31 01:46:30;;;;;;;5.68;5.00;;;19.40;99.90;;;;;;5073392;28;20547;-64
2021/07/31 01:48:58;;;;;;;5.55;4.78;;;19.40;99.90;;;;;;5073518;28;20220;-64
2021/07/31 01:51:26;;;;;;;7.85;5.28;;;19.40;99.90;;;;;;5073556;28;20201;-64
2021/07/31 01:53:54;;;;;;;6.38;4.65;;;19.40;99.90;;;;;;5073686;28;20598;-65
2021/07/31 01:56:23;;;;;;;7.22;4.80;;;19.40;99.90;;;;;;5073173;28;20240;-63
2021/07/31 01:58:51;;;;;;;5.55;4.70;;;19.40;99.90;;;;;;5073334;28;20616;-63
2021/07/31 02:01:19;;;;;;;5.22;4.72;;;19.40;99.90;;;;;;5073051;28;20370;-64
2021/07/31 02:03:47;;;;;;;5.13;4.63;;;19.40;99.90;;;;;;5073360;28;20208;-64
2021/07/31 02:06:14;;;;;;;6.00;5.10;;;19.30;99.90;;;;;;5073403;28;20342;-63
2021/07/31 02:08:42;;;;;;;7.22;4.63;;;19.30;99.90;;;;;;5073274;28;20614;-64
2021/07/31 02:11:11;;;;;;;6.45;4.63;;;19.20;99.90;;;;;;5073295;28;20207;-63
2021/07/31 02:13:41;;;;;;;5.78;4.90;;;19.10;99.90;;;;;;5073166;28;20204;-65
2021/07/31 02:16:08;;;;;;;5.47;4.70;;;19.00;99.90;;;;;;5072628;28;20779;-64
2021/07/31 02:18:36;;;;;;;5.20;4.70;;;18.90;99.90;;;;;;5072873;28;20242;-64
2021/07/31 02:21:04;;;;;;;4.85;4.35;;;18.90;99.90;;;;;;5072800;28;20675;-64
2021/07/31 02:23:32;;;;;;;5.13;4.70;;;18.90;99.90;;;;;;5072783;28;20200;-63
2021/07/31 02:26:00;;;;;;;5.05;4.55;;;18.80;99.90;;;;;;5072872;28;20232;-64
2021/07/31 02:28:28;;;;;;;6.25;4.88;;;18.80;99.90;;;;;;5072915;28;20205;-64
2021/07/31 02:30:57;;;;;;;6.00;4.70;;;18.60;99.90;;;;;;5072800;28;20307;-63
2021/07/31 02:33:25;;;;;;;4.75;4.35;;;18.50;99.90;;;;;;5072854;28;20197;-64
2021/07/31 02:35:53;;;;;;;6.25;4.57;;;18.50;99.90;;;;;;5072717;28;20196;-64
2021/07/31 02:38:21;;;;;;;6.85;4.45;;;18.50;99.90;;;;;;5072591;28;20201;-63
2021/07/31 02:40:49;;;;;;;5.65;4.35;;;18.60;99.90;;;;;;5072873;28;20250;-63
2021/07/31 02:43:17;;;;;;;5.35;4.63;;;18.50;99.90;;;;;;5072552;28;20201;-65
2021/07/31 02:45:44;;;;;;;5.05;4.63;;;18.60;99.90;;;;;;5072412;28;20640;-63
2021/07/31 02:48:14;;;;;;;5.07;4.50;;;18.60;99.90;;;;;;5072195;28;20232;-64
2021/07/31 02:50:42;;;;;;;5.47;4.30;;;18.60;99.90;;;;;;5072379;28;20308;-64
2021/07/31 02:53:09;;;;;;;5.13;4.45;;;18.70;99.90;;;;;;5072349;28;20205;-63
2021/07/31 02:55:37;;;;;;;5.20;4.40;;;18.60;99.90;;;;;;5072439;28;20825;-64
2021/07/31 02:58:05;;;;;;;5.38;4.30;;;18.50;99.90;;;;;;5072109;28;20205;-63
2021/07/31 03:00:33;;;;;;;4.65;4.13;;;18.50;99.90;;;;;;5072135;28;20199;-63
2021/07/31 03:03:01;;;;;;;5.00;4.50;;;18.40;99.90;;;;;;5072217;28;20196;-64
2021/07/31 03:05:30;;;;;;;4.78;4.38;;;18.30;99.90;;;;;;5072586;28;20240;-63
2021/07/31 03:07:58;;;;;;;6.35;4.47;;;18.20;99.90;;;;;;5072357;28;20207;-63
2021/07/31 03:10:26;;;;;;;4.60;4.20;;;18.20;99.90;;;;;;5072156;28;20575;-64
2021/07/31 03:12:53;;;;;;;6.20;4.07;;;18.10;99.90;;;;;;5071778;28;20203;-63
2021/07/31 03:15:21;;;;;;;5.13;4.28;;;18.10;99.90;;;;;;5071639;28;20204;-63
2021/07/31 03:17:49;;;;;;;5.10;4.35;;;18.00;99.90;;;;;;5072123;28;20208;-63
2021/07/31 03:20:18;;;;;;;5.40;4.60;;;18.00;99.90;;;;;;5072126;28;20197;-63
2021/07/31 03:22:47;;;;;;;5.18;4.45;;;17.90;99.90;;;;;;5072223;28;20295;-63
2021/07/31 03:25:15;;;;;;;4.50;4.10;;;17.90;99.90;;;;;;5072087;28;20197;-63
2021/07/31 03:27:42;;;;;;;5.00;3.95;;;17.90;99.90;;;;;;5072019;28;20300;-63
2021/07/31 03:30:11;;;;;;;5.45;3.97;;;17.90;99.90;;;;;;5071761;28;20213;-64
2021/07/31 03:32:39;;;;;;;6.13;4.20;;;17.80;99.90;;;;;;5071497;28;20667;-62
2021/07/31 03:35:08;;;;;;;4.55;4.13;;;17.70;99.90;;;;;;5071835;28;20203;-63
2021/07/31 03:37:35;;;;;;;6.00;4.35;;;17.70;99.90;;;;;;5071843;28;20283;-63
2021/07/31 03:40:06;;;;;;;6.97;4.25;;;17.80;99.90;;;;;;5072131;28;20207;-62
2021/07/31 03:42:34;;;;;;;4.40;3.80;;;17.70;99.90;;;;;;5071732;28;20184;-63
2021/07/31 03:45:02;;;;;;;5.13;4.07;;;17.70;99.90;;;;;;5071372;28;20225;-64
2021/07/31 03:47:30;;;;;;;4.03;3.63;;;17.80;99.90;;;;;;5075156;28;20214;-64
2021/07/31 03:49:58;;;;;;;4.38;3.95;;;17.70;99.90;;;;;;5075818;28;20208;-63
2021/07/31 03:52:27;;;;;;;4.82;4.07;;;17.70;99.90;;;;;;5075820;28;20196;-63
2021/07/31 03:54:55;;;;;;;4.45;4.05;;;17.60;99.90;;;;;;5075714;28;20201;-64
2021/07/31 03:57:24;;;;;;;4.78;4.22;;;17.60;99.90;;;;;;5075660;28;20291;-63
2021/07/31 03:59:52;;;;;;;5.43;4.40;;;17.60;99.90;;;;;;5075257;28;20700;-63
2021/07/31 04:02:20;;;;;;;4.95;4.13;;;17.60;99.90;;;;;;5075418;28;20291;-63
2021/07/31 04:04:48;;;;;;;4.72;4.22;;;17.60;99.90;;;;;;5075552;28;20257;-63
2021/07/31 04:07:16;;;;;;;4.82;3.95;;;17.60;99.90;;;;;;5075524;28;20193;-63
2021/07/31 04:09:44;;;;;;;6.13;4.03;;;17.60;99.90;;;;;;5075506;28;20349;-62
2021/07/31 04:12:11;;;;;;;4.18;3.78;;;17.60;99.90;;;;;;5075156;28;20688;-64
2021/07/31 04:14:40;;;;;;;4.53;3.90;;;17.60;99.90;;;;;;5075211;28;20201;-63
2021/07/31 04:17:08;;;;;;;4.40;3.70;;;17.50;99.90;;;;;;5075340;28;20213;-63
2021/07/31 04:19:36;;;;;;;4.78;3.80;;;17.50;99.90;;;;;;5075387;28;20250;-64
2021/07/31 04:22:04;;;;;;;6.20;4.15;;;17.60;99.90;;;;;;5074950;28;20197;-63
2021/07/31 04:24:35;;;;;;;5.03;3.90;;;17.60;99.90;;;;;;5075137;28;20201;-64
2021/07/31 04:27:04;;;;;;;6.13;3.97;;;17.60;99.90;;;;;;5075195;28;20851;-63
2021/07/31 04:29:32;;;;;;;5.10;4.03;;;17.60;99.90;;;;;;5074966;28;20234;-64
2021/07/31 04:32:01;;;;;;;5.43;4.20;;;17.70;99.90;;;;;;5074558;28;20898;-63
2021/07/31 04:34:29;;;;;;;3.72;3.42;;;17.70;99.90;;;;;;5075186;28;20205;-63
2021/07/31 04:36:58;;;;;;;6.22;3.70;;;17.70;99.90;;;;;;5074779;28;20236;-63
2021/07/31 04:39:25;;;;;;;4.35;3.75;;;17.70;99.90;;;;;;5074671;28;20204;-64
2021/07/31 04:41:53;;;;;;;4.68;4.18;;;17.80;99.90;;;;;;5074824;28;20200;-64
2021/07/31 04:44:21;;;;;;;4.28;3.80;;;17.90;99.90;;;;;;5074375;28;20264;-63
2021/07/31 04:46:49;;;;;;;6.90;3.78;;;18.00;99.90;;;;;;5074281;28;20205;-63
2021/07/31 04:49:18;;;;;;;4.25;3.78;;;18.10;99.90;;;;;;5074770;28;20204;-63
2021/07/31 04:51:46;;;;;;;4.32;3.83;;;18.20;99.90;;;;;;5074719;28;20217;-63
2021/07/31 04:54:15;;;;;;;5.15;3.80;;;18.40;99.90;;;;;;5074783;28;20203;-63
2021/07/31 04:56:43;;;;;;;4.85;3.50;;;18.40;99.90;;;;;;5074289;28;20775;-63
2021/07/31 04:59:10;;;;;;;6.80;3.78;;;18.60;99.90;;;;;;5074413;28;20295;-62
2021/07/31 05:01:38;;;;;;;3.80;3.40;;;18.60;99.90;;;;;;5074406;28;20197;-64
2021/07/31 05:04:06;;;;;;;4.47;3.28;;;18.80;99.90;;;;;;5074617;28;20205;-63
2021/07/31 05:06:37;;;;;;;4.40;3.15;;;19.40;99.90;;;;;;5075063;28;20911;-63
2021/07/31 05:09:06;;;;;;;4.63;3.13;;;20.80;99.90;;;;;;5075076;28;20277;-63
2021/07/31 05:11:34;;;;;;;3.78;2.80;;;22.00;99.90;;;;;;5074462;28;20618;-64
2021/07/31 05:14:01;;;;;;;5.10;2.47;;;23.20;99.90;;;;;;5074754;28;20624;-64
2021/07/31 05:16:30;;;;;;;3.55;2.80;;;23.90;99.90;;;;;;5074662;28;20196;-63
2021/07/31 05:18:58;;;;;;;4.97;2.33;;;24.30;99.90;;;;;;5075048;28;20208;-64
2021/07/31 05:21:26;;;;;;;5.32;2.63;;;24.60;99.90;;;;;;5074850;28;20203;-64
2021/07/31 05:23:55;;;;;;;3.90;2.70;;;24.70;99.90;;;;;;5074647;28;20196;-64
2021/07/31 05:26:23;;;;;;;2.60;2.40;;;24.80;99.90;;;;;;5074349;28;20720;-64
2021/07/31 05:28:51;;;;;;;4.68;2.55;;;24.60;99.90;;;;;;5074590;28;20287;-64
2021/07/31 05:31:20;;;;;;;4.00;2.90;;;24.20;99.90;;;;;;5074404;28;20219;-63
2021/07/31 05:33:48;;;;;;;3.63;2.15;;;23.70;99.90;;;;;;5074607;28;20207;-64
2021/07/31 05:36:16;;;;;;;4.15;2.80;;;23.10;99.90;;;;;;5074057;28;20232;-63
2021/07/31 05:38:44;;;;;;;3.83;2.50;;;22.50;99.90;;;;;;5074089;28;20558;-63
2021/07/31 05:41:17;;;;;;;3.28;2.40;;;22.10;99.90;;;;;;5074281;28;20197;-64
2021/07/31 05:43:45;;;;;;;3.97;2.45;;;21.80;99.90;;;;;;5073866;28;20323;-63
2021/07/31 05:46:17;;;;;;;3.50;2.40;;;21.70;99.90;;;;;;5074090;28;20219;-64
2021/07/31 05:48:45;;;;;;;4.97;2.72;;;21.50;99.90;;;;;;5073980;28;20185;-64
2021/07/31 05:51:13;;;;;;;4.18;2.60;;;21.50;99.90;;;;;;5074072;28;20235;-64
2021/07/31 05:53:41;;;;;;;7.40;2.40;;;21.30;99.90;;;;;;5073814;28;20300;-64
2021/07/31 05:56:11;;;;;;;3.20;2.20;;;21.30;99.90;;;;;;5073817;28;20780;-63
2021/07/31 05:58:40;;;;;;;3.80;2.03;;;21.30;99.90;;;;;;5073523;28;20590;-63
2021/07/31 06:01:08;;;;;;;3.58;2.47;;;21.30;99.90;;;;;;5074048;28;20197;-64
2021/07/31 06:03:38;;;;;;;4.53;2.30;;;21.40;99.90;;;;;;5073841;28;20204;-63
2021/07/31 06:06:06;;;;;;;2.53;1.92;;;21.40;99.90;;;;;;5073745;28;20706;-64
2021/07/31 06:08:34;;;;;;;3.05;2.08;;;21.40;99.90;;;;;;5074474;28;20322;-64
2021/07/31 06:11:03;;;;;;;4.38;2.17;;;21.40;99.90;;;;;;5074620;28;20201;-65
2021/07/31 06:13:32;;;;;;;3.17;1.80;;;21.40;99.90;;;;;;5074400;28;20236;-64
2021/07/31 06:16:01;;;;;;;2.95;1.70;;;21.40;99.90;;;;;;5073499;28;20668;-63
2021/07/31 06:18:29;;;;;;;2.00;1.60;;;21.50;99.90;;;;;;5073205;28;20619;-63
2021/07/31 06:20:56;;;;;;;1.50;1.40;;;21.40;99.90;;;;;;5073251;28;20303;-63
2021/07/31 06:23:24;;;;;;;3.05;1.95;;;21.50;99.90;;;;;;5073739;28;20197;-65
2021/07/31 06:26:00;;;;;;;3.00;1.58;;;21.60;99.90;;;;;;5073530;28;20196;-64
2021/07/31 06:28:28;;;;;;;3.45;1.35;;;21.70;99.90;;;;;;5073452;28;20203;-63
2021/07/31 06:30:56;;;;;;;3.20;1.50;;;21.70;99.90;;;;;;5072915;28;20254;-64
2021/07/31 06:33:25;;;;;;;4.97;1.90;;;21.70;99.90;;;;;;5073131;28;20304;-64
2021/07/31 06:35:53;;;;;;;3.10;1.40;;;21.90;99.90;;;;;;5073192;28;20207;-64
2021/07/31 06:38:21;;;;;;;4.30;1.50;;;22.00;99.90;;;;;;5073413;28;20240;-64
2021/07/31 06:40:48;;;;;;;4.10;1.42;;;22.00;99.90;;;;;;5073248;28;20197;-65
2021/07/31 06:43:16;;;;;;;3.72;1.42;;;22.00;99.90;;;;;;5072734;28;20197;-63
2021/07/31 06:45:44;;;;;;;2.78;1.27;;;22.10;99.90;;;;;;5072863;28;20185;-64
2021/07/31 06:48:12;;;;;;;2.97;1.35;;;22.10;99.90;;;;;;5072922;28;20219;-64
2021/07/31 06:50:41;;;;;;;2.85;1.40;;;22.20;99.90;;;;;;5072681;28;20544;-63
2021/07/31 06:53:09;;;;;;;3.58;1.40;;;22.20;99.90;;;;;;5073103;28;20326;-64
2021/07/31 06:55:37;;;;;;;1.67;1.40;;;22.30;99.90;;;;;;5073001;28;20228;-63
2021/07/31 06:58:04;;;;;;;2.55;1.60;;;22.30;99.90;;;;;;5072762;28;20197;-64
2021/07/31 07:00:32;;;;;;;3.45;1.70;;;22.20;99.90;;;;;;5072261;28;20214;-64
2021/07/31 07:03:00;;;;;;;3.15;1.75;;;22.30;99.90;;;;;;5072137;28;20250;-64
2021/07/31 07:05:28;;;;;;;2.53;1.55;;;22.30;99.90;;;;;;5071996;28;20597;-64
2021/07/31 07:07:57;;;;;;;3.10;1.67;;;22.30;99.90;;;;;;5072318;28;20298;-65
2021/07/31 07:10:25;;;;;;;3.08;1.60;;;22.30;99.90;;;;;;5072268;28;20228;-64
2021/07/31 07:12:53;;;;;;;2.97;1.60;;;22.30;99.90;;;;;;5072101;28;20311;-65
2021/07/31 07:15:21;;;;;;;2.03;1.52;;;22.40;99.90;;;;;;5071557;28;20232;-64
2021/07/31 07:17:48;;;;;;;2.00;1.60;;;22.50;99.90;;;;;;5071990;28;20207;-63
2021/07/31 07:20:16;;;;;;;4.78;1.80;;;22.20;99.90;;;;;;5071340;28;20201;-64
2021/07/31 07:22:44;;;;;;;3.45;1.50;;;22.40;99.90;;;;;;5071965;28;20224;-63
2021/07/31 07:25:14;;;;;;;3.03;1.60;;;22.50;99.90;;;;;;5072002;28;20295;-63
2021/07/31 07:27:42;;;;;;;7.03;1.67;;;22.50;99.90;;;;;;5072052;28;20821;-64
2021/07/31 07:30:11;;;;;;;3.22;1.58;;;22.50;99.90;;;;;;5071929;28;20552;-63
2021/07/31 07:32:39;;;;;;;2.75;1.50;;;22.50;99.90;;;;;;5071833;28;20238;-64
2021/07/31 07:35:08;;;;;;;4.15;1.80;;;22.50;99.90;;;;;;5071907;28;20201;-64
2021/07/31 07:37:35;;;;;;;2.90;1.48;;;22.40;99.90;;;;;;5072483;28;20207;-63
2021/07/31 07:40:06;;;;;;;3.60;1.60;;;22.40;99.90;;;;;;5072232;28;20730;-64
2021/07/31 07:42:35;;;;;;;2.42;1.77;;;22.20;99.90;;;;;;5072556;28;20193;-64
2021/07/31 07:45:03;;;;;;;3.35;1.38;;;22.20;99.90;;;;;;5071694;28;20715;-64
2021/07/31 07:47:31;;;;;;;1.85;1.60;;;22.00;99.90;;;;;;5072468;28;20251;-63
2021/07/31 07:50:00;;;;;;;4.47;1.55;;;22.10;99.90;;;;;;5071925;28;20734;-64
2021/07/31 07:52:28;;;;;;;5.13;1.50;;;22.10;99.90;;;;;;5071846;28;20216;-64
2021/07/31 07:54:56;;;;;;;4.15;1.40;;;22.20;99.90;;;;;;5072179;28;20316;-64
2021/07/31 07:57:24;;;;;;;3.63;1.40;;;22.20;99.90;;;;;;5072149;28;20304;-65
2021/07/31 07:59:53;;;;;;;4.45;1.50;;;22.20;99.90;;;;;;5071930;28;20299;-63
2021/07/31 08:02:21;;;;;;;4.07;1.73;;;22.30;99.90;;;;;;5062560;28;20205;-64
2021/07/31 08:04:49;;;;;;;3.10;1.25;;;22.30;99.90;;;;;;5072009;28;20201;-66
2021/07/31 08:07:17;;;;;;;5.70;1.67;;;22.30;99.90;;;;;;5071697;28;20224;-66
2021/07/31 08:09:44;;;;;;;2.75;1.70;;;22.30;99.90;;;;;;5071548;28;20201;-67
2021/07/31 08:12:12;;;;;;;2.58;1.55;;;22.40;99.90;;;;;;5071766;28;20831;-66
2021/07/31 08:14:40;;;;;;;4.72;1.63;;;22.40;99.90;;;;;;5071754;28;20292;-66
2021/07/31 08:17:09;;;;;;;1.70;1.33;;;22.40;99.90;;;;;;5071509;28;20299;-67
2021/07/31 08:19:37;;;;;;;4.50;1.55;;;22.40;99.90;;;;;;5071932;28;20258;-67
2021/07/31 08:22:05;;;;;;;2.47;1.30;;;22.30;99.90;;;;;;5071385;28;20247;-68
2021/07/31 08:24:33;;;;;;;4.82;1.40;;;22.20;99.90;;;;;;5071727;28;20247;-69
2021/07/31 08:27:01;;;;;;;1.83;1.13;;;22.20;99.90;;;;;;5071787;28;20236;-68
2021/07/31 08:29:29;;;;;;;3.83;1.45;;;22.30;99.90;;;;;;5071256;28;20687;-66
2021/07/31 08:31:57;;;;;;;2.53;1.38;;;22.40;99.90;;;;;;5072148;28;20236;-68
2021/07/31 08:34:26;;;;;;;4.10;1.35;;;22.40;99.90;;;;;;5075014;28;20244;-67
2021/07/31 08:36:54;;;;;;;3.28;1.40;;;22.60;99.90;;;;;;5075051;28;20288;-67
2021/07/31 08:39:21;;;;;;;2.38;1.10;;;22.70;99.90;;;;;;5075080;28;20677;-65
2021/07/31 08:41:49;;;;;;;2.90;1.30;;;22.80;99.90;;;;;;5074805;28;20321;-61
2021/07/31 08:44:17;;;;;;;3.22;1.30;;;22.80;99.90;;;;;;5074503;28;20691;-61
2021/07/31 08:46:46;;;;;;;2.95;1.25;;;22.60;99.90;;;;;;5074846;28;20640;-63
2021/07/31 08:49:18;;;;;;;3.78;1.30;;;22.60;99.90;;;;;;5074719;28;20197;-68
2021/07/31 08:51:48;;;;;;;2.25;1.20;;;22.70;99.90;;;;;;5075154;28;20191;-66
2021/07/31 08:54:15;;;;;;;3.10;1.20;;;22.80;99.90;;;;;;5075077;28;20223;-68
2021/07/31 08:56:43;;;;;;;2.88;1.20;;;23.00;99.90;;;;;;5075018;28;20204;-68
2021/07/31 08:59:11;;;;;;;2.10;1.08;;;23.10;99.90;;;;;;5074854;28;20207;-67
2021/07/31 09:01:39;;;;;;;1.80;1.02;;;23.20;99.90;;;;;;5074710;28;20236;-67
2021/07/31 09:04:12;;;;;;;2.83;1.50;;;23.20;99.90;;;;;;5074909;28;20606;-68
2021/07/31 09:06:40;;;;;;;6.13;1.20;;;23.20;99.90;;;;;;5074718;28;20222;-68
2021/07/31 09:09:10;;;;;;;2.38;1.00;;;23.10;99.90;;;;;;5074848;28;20566;-67
2021/07/31 09:11:55;;;;;;;2.25;1.17;;;23.00;99.90;;;;;;5076124;28;20600;-67
2021/07/31 09:14:23;;;;;;;2.13;1.23;;;23.00;99.90;;;;;;5074546;28;20213;-63
2021/07/31 09:16:51;;;;;;;3.22;1.20;;;22.90;99.90;;;;;;5055720;28;20248;-66
2021/07/31 09:19:20;;;;;;;1.85;1.13;;;23.00;99.90;;;;;;5054710;28;20634;-68
2021/07/31 09:21:49;;;;;;;3.78;1.20;;;23.00;99.90;;;;;;5054629;28;20287;-67
2021/07/31 09:24:20;;;;;;;3.72;1.40;;;23.20;99.90;;;;;;5054405;28;20197;-69
2021/07/31 09:26:50;;;;;;;3.35;1.27;;;23.40;99.90;;;;;;5054633;28;20277;-68
2021/07/31 09:29:20;;;;;;;2.33;1.27;;;23.60;99.90;;;;;;5054351;28;20289;-67
2021/07/31 09:31:50;;;;;;;3.85;1.30;;;23.80;99.90;;;;;;5054433;28;20182;-67
2021/07/31 09:34:26;;;;;;;1.95;1.30;;;23.90;99.90;;;;;;5054212;28;20214;-68
2021/07/31 09:37:09;;;;;;;2.42;1.35;;;24.00;99.90;;;;;;5063926;28;20275;-67
2021/07/31 09:39:54;;;;;;;2.25;1.33;;;24.00;99.90;;;;;;5074438;28;20280;-67
2021/07/31 09:42:26;;;;;;;3.05;1.20;;;24.00;99.90;;;;;;5074220;28;20255;-68
2021/07/31 09:44:54;;;;;;;3.30;1.50;;;23.90;99.90;;;;;;5072883;28;20220;-67
2021/07/31 09:47:22;;;;;;;2.63;1.48;;;24.00;99.90;;;;;;5073660;28;20291;-67
2021/07/31 09:49:51;;;;;;;1.38;1.27;;;24.00;99.90;;;;;;5073603;28;20200;-67
2021/07/31 09:52:20;;;;;;;2.70;1.23;;;24.00;99.90;;;;;;5073816;28;20205;-68
2021/07/31 09:54:49;;;;;;;3.33;1.20;;;23.90;99.90;;;;;;5073627;28;20312;-66
2021/07/31 09:57:19;;;;;;;1.25;1.15;;;23.80;99.90;;;;;;5073727;28;20196;-70
2021/07/31 09:59:48;;;;;;;2.95;1.40;;;23.90;99.90;;;;;;5073749;28;20296;-67
2021/07/31 10:02:17;;;;;;;2.60;1.30;;;23.90;99.90;;;;;;5073720;28;20295;-68
2021/07/31 10:04:45;;;;;;;4.00;1.20;;;23.80;99.90;;;;;;5073523;28;20652;-69
2021/07/31 10:07:14;;;;;;;2.75;1.58;;;23.80;99.90;;;;;;5073837;28;20291;-67
2021/07/31 10:09:45;;;;;;;3.72;1.60;;;23.80;99.90;;;;;;5073592;28;20295;-67
2021/07/31 10:12:15;;;;;;;2.63;1.30;;;24.00;99.90;;;;;;5073457;28;20207;-68
2021/07/31 10:14:45;;;;;;;3.30;2.22;;;24.20;99.90;;;;;;5073558;28;20204;-67
2021/07/31 10:17:14;;;;;;;5.00;1.45;;;24.20;99.90;;;;;;5073554;28;20204;-66
2021/07/31 10:19:44;;;;;;;9.98;1.85;;;24.10;99.90;;;;;;5073403;28;20300;-68
2021/07/31 10:22:12;;;;;;;2.58;1.40;;;24.10;99.90;;;;;;5073382;28;20907;-67
2021/07/31 10:25:08;;;;;;;3.85;1.80;;;24.20;99.90;;;;;;5073100;28;20226;-67
2021/07/31 10:27:36;;;;;;;3.13;1.70;;;24.20;99.90;;;;;;5073376;28;20278;-67
2021/07/31 10:30:25;;;;;;;3.08;1.40;;;24.20;99.90;;;;;;5073196;28;20271;-69
2021/07/31 10:32:52;;;;;;;3.13;1.50;;;24.20;99.90;;;;;;5073154;28;20181;-65
2021/07/31 10:35:39;;;;;;;3.35;1.60;;;24.20;99.90;;;;;;5073062;28;20216;-67
2021/07/31 10:38:09;;;;;;;2.40;1.50;;;24.20;99.90;;;;;;5051503;28;20205;-67
2021/07/31 10:40:56;;;;;;;3.47;1.60;;;24.50;99.90;;;;;;5053172;28;20207;-67
2021/07/31 10:43:27;;;;;;;2.50;1.42;;;24.60;99.90;;;;;;5052891;28;20558;-67
2021/07/31 10:46:24;;;;;;;3.08;1.42;;;24.70;99.90;;;;;;5052950;28;20609;-68
2021/07/31 10:48:52;;;;;;;5.55;1.27;;;24.80;99.90;;;;;;5052924;28;20216;-63
2021/07/31 10:51:41;;;;;;;4.30;1.67;;;24.90;99.90;;;;;;5052925;28;20186;-67
2021/07/31 10:54:09;;;;;;;4.10;1.98;;;24.70;99.90;;;;;;5052885;28;20262;-67
2021/07/31 10:56:54;;;;;;;2.55;1.40;;;24.40;99.90;;;;;;5052497;28;20201;-66
2021/07/31 10:59:22;;;;;;;1.85;1.25;;;24.10;99.90;;;;;;5052863;28;20641;-68
2021/07/31 11:02:29;;;;;;;1.67;1.42;;;24.10;99.90;;;;;;5052891;28;20212;-67
2021/07/31 11:05:00;;;;;;;2.90;1.30;;;24.30;99.90;;;;;;5053140;28;20719;-67
2021/07/31 11:07:29;;;;;;;10.00;1.40;;;24.70;99.90;;;;;;5052880;28;20622;-67
2021/07/31 11:10:43;;;;;;;3.63;1.20;;;24.90;99.90;;;;;;5052943;28;20205;-67
2021/07/31 11:13:11;;;;;;;3.13;1.30;;;25.30;99.90;;;;;;5052966;28;20181;-67
2021/07/31 11:16:18;;;;;;;2.58;1.10;;;25.40;99.90;;;;;;5052460;28;20217;-66
2021/07/31 11:18:48;;;;;;;1.38;1.10;;;25.20;99.90;;;;;;5052354;28;20209;-67
2021/07/31 11:21:19;;;;;;;3.85;1.27;;;25.00;99.90;;;;;;5052590;28;20302;-66
2021/07/31 11:23:49;;;;;;;2.25;1.05;;;24.90;99.90;;;;;;5052686;28;20185;-68
2021/07/31 11:26:48;;;;;;;2.58;1.30;;;24.80;99.90;;;;;;5052598;28;20553;-67
2021/07/31 11:29:18;;;;;;;2.90;1.27;;;24.80;99.90;;;;;;5052175;28;20729;-67
2021/07/31 11:31:59;;;;;;;4.50;1.60;;;24.80;99.90;;;;;;5052417;28;20217;-66
2021/07/31 11:34:27;;;;;;;2.33;1.38;;;24.70;99.90;;;;;;5052552;28;20292;-66
2021/07/31 11:36:58;;;;;;;1.67;1.17;;;24.60;99.90;;;;;;5061713;28;20239;-67
2021/07/31 11:39:26;;;;;;;2.95;1.30;;;24.80;99.90;;;;;;5072446;28;20192;-67
2021/07/31 11:41:57;;;;;;;3.70;1.35;;;24.50;99.90;;;;;;5072213;28;20204;-64
2021/07/31 11:44:27;;;;;;;3.35;1.30;;;24.40;99.90;;;;;;5071778;28;20728;-63
2021/07/31 11:46:55;;;;;;;3.08;1.30;;;24.40;99.90;;;;;;5071936;28;20740;-65
2021/07/31 11:49:27;;;;;;;1.10;0.80;;;24.60;99.90;;;;;;5072337;28;20207;-64
2021/07/31 11:51:58;;;;;;;3.90;0.98;;;24.90;99.90;;;;;;5072005;28;20214;-65
2021/07/31 11:54:26;;;;;;;3.25;1.00;;;25.00;99.90;;;;;;5072156;28;20307;-64
2021/07/31 11:56:55;;;;;;;7.57;1.55;;;25.00;99.90;;;;;;5072123;28;20231;-66
2021/07/31 11:59:24;;;;;;;1.23;0.93;;;24.90;99.90;;;;;;5071738;28;20748;-65
2021/07/31 12:01:55;;;;;;;2.58;1.20;;;24.70;99.90;;;;;;5071991;28;20304;-66
2021/07/31 12:04:43;;;;;;;2.60;1.20;;;24.60;99.90;;;;;;5072211;28;20189;-64
2021/07/31 12:07:14;;;;;;;3.28;1.70;;;24.40;99.90;;;;;;5072796;28;20636;-66
2021/07/31 12:09:43;;;;;;;1.60;1.00;;;24.40;99.90;;;;;;5075674;28;20230;-64
2021/07/31 12:12:24;;;;;;;3.25;1.20;;;24.50;99.90;;;;;;5075980;28;20203;-65
2021/07/31 12:15:21;;;;;;;1.90;1.20;;;24.60;99.90;;;;;;5075649;28;20299;-65
2021/07/31 12:18:03;;;;;;;2.97;1.10;;;24.60;99.90;;;;;;5034637;28;20217;-65
2021/07/31 12:20:31;;;;;;;5.35;1.20;;;24.70;99.90;;;;;;5055624;28;20742;-64
2021/07/31 12:23:02;;;;;;;5.70;1.40;;;24.70;99.90;;;;;;5055892;28;20343;-64
2021/07/31 12:25:30;;;;;;;1.80;1.13;;;24.80;99.90;;;;;;5055573;28;20201;-64
2021/07/31 12:28:05;;;;;;;1.85;1.20;;;24.90;99.90;;;;;;5055830;28;20284;-64
2021/07/31 12:30:40;;;;;;;4.07;1.23;;;25.00;99.90;;;;;;5057889;28;20196;-64
2021/07/31 12:33:16;;;;;;;2.25;1.40;;;25.10;99.90;;;;;;5054544;28;20195;-62
2021/07/31 12:35:46;;;;;;;2.15;1.30;;;25.10;99.90;;;;;;5055740;28;20554;-64
2021/07/31 12:38:18;;;;;;;3.25;1.15;;;25.30;99.90;;;;;;5075268;28;20236;-64
2021/07/31 12:40:48;;;;;;;3.95;1.33;;;25.40;99.90;;;;;;5075628;28;20350;-64
2021/07/31 12:43:18;;;;;;;7.07;1.30;;;25.20;99.90;;;;;;5075361;28;20211;-64
2021/07/31 12:45:46;;;;;;;2.55;1.15;;;25.00;99.90;;;;;;5075119;28;20223;-64
2021/07/31 12:48:16;;;;;;;2.65;1.35;;;24.90;99.90;;;;;;5064287;28;20232;-64
2021/07/31 12:50:44;;;;;;;1.60;1.40;;;25.00;99.90;;;;;;5055202;28;20240;-64
2021/07/31 12:53:13;;;;;;;3.33;0.93;;;25.10;99.90;;;;;;5054968;28;20207;-64
2021/07/31 12:55:43;;;;;;;2.40;1.30;;;25.20;99.90;;;;;;5054783;28;20218;-64
2021/07/31 12:58:11;;;;;;;1.40;1.20;;;25.40;99.90;;;;;;5055317;28;20321;-63
2021/07/31 13:00:40;;;;;;;1.52;1.10;;;25.50;99.90;;;;;;5054667;28;20205;-64
2021/07/31 13:03:09;;;;;;;3.33;1.10;;;25.40;99.90;;;;;;5054723;28;20653;-64